RYR57MU EKCH-EGSS
Flight info
| Callsign | RYR57MU |
|---|---|
| Flight time | 1h 26m |
| Altitude | 38000 |
| Route | LANGO DCT KESUR DCT LONAM DCT BINBO DCT AKOKO N866 KUBAX Z150 MEGEL |
| Aircraft | B738/M-SDE2E3FGHIRWXY/LB1 |
Departure
| Time | 2026-04-25 21:40 |
|---|---|
| Airport | Copenhagen Kastrup Airport (EKCH) |
Arrival
| Time | 2026-04-25 23:07 |
|---|---|
| Airport | London Stansted Airport (EGSS) |
| Time | Latitude | Longitude | Altitude | Speed | Heading |
|---|---|---|---|---|---|
| 2026-04-25 21:10 | 55.62519 | 12.65682 | 23 ft | 0 kts | 359° |
| 2026-04-25 21:31 | 55.62498 | 12.65682 | 39 ft | 4 kts | 359° |
| 2026-04-25 21:31 | 55.62472 | 12.65684 | 24 ft | 4 kts | 345° |
| 2026-04-25 21:32 | 55.62451 | 12.65706 | 26 ft | 4 kts | 298° |
| 2026-04-25 21:32 | 55.62446 | 12.65736 | 27 ft | 0 kts | 269° |
| 2026-04-25 21:35 | 55.62446 | 12.65735 | 27 ft | 1 kts | 269° |
| 2026-04-25 21:35 | 55.62445 | 12.65668 | 25 ft | 11 kts | 269° |
| 2026-04-25 21:35 | 55.62443 | 12.65468 | 23 ft | 20 kts | 268° |
| 2026-04-25 21:36 | 55.62437 | 12.65258 | 23 ft | 15 kts | 256° |
| 2026-04-25 21:36 | 55.62346 | 12.65204 | 23 ft | 15 kts | 180° |
| 2026-04-25 21:36 | 55.62242 | 12.65195 | 23 ft | 16 kts | 187° |
| 2026-04-25 21:36 | 55.62132 | 12.65089 | 23 ft | 21 kts | 213° |
| 2026-04-25 21:37 | 55.61995 | 12.64931 | 23 ft | 25 kts | 213° |
| 2026-04-25 21:37 | 55.61894 | 12.64815 | 23 ft | 28 kts | 213° |
| 2026-04-25 21:37 | 55.61678 | 12.64566 | 23 ft | 26 kts | 213° |
| 2026-04-25 21:37 | 55.61529 | 12.64396 | 23 ft | 25 kts | 213° |
| 2026-04-25 21:38 | 55.61387 | 12.64231 | 24 ft | 26 kts | 213° |
| 2026-04-25 21:38 | 55.61224 | 12.64045 | 23 ft | 28 kts | 213° |
| 2026-04-25 21:38 | 55.61068 | 12.63865 | 23 ft | 26 kts | 213° |
| 2026-04-25 21:38 | 55.60922 | 12.63698 | 24 ft | 24 kts | 212° |
| 2026-04-25 21:39 | 55.60803 | 12.63597 | 26 ft | 15 kts | 168° |
| 2026-04-25 21:39 | 55.60725 | 12.63726 | 23 ft | 16 kts | 131° |
| 2026-04-25 21:39 | 55.60678 | 12.63860 | 25 ft | 7 kts | 71° |
| 2026-04-25 21:39 | 55.60773 | 12.64017 | 25 ft | 47 kts | 41° |
| 2026-04-25 21:40 | 55.61208 | 12.64689 | 23 ft | 115 kts | 41° |
| 2026-04-25 21:40 | 55.61950 | 12.65837 | 84 ft | 161 kts | 36° |
| 2026-04-25 21:40 | 55.62790 | 12.67130 | 836 ft | 156 kts | 34° |
| 2026-04-25 21:40 | 55.63564 | 12.68346 | 1769 ft | 147 kts | 33° |
| 2026-04-25 21:41 | 55.64398 | 12.69600 | 2180 ft | 174 kts | 33° |
| 2026-04-25 21:41 | 55.65374 | 12.71084 | 2654 ft | 188 kts | 34° |
| 2026-04-25 21:41 | 55.66371 | 12.72589 | 3261 ft | 192 kts | 35° |
| 2026-04-25 21:41 | 55.67415 | 12.74157 | 3954 ft | 197 kts | 35° |
| 2026-04-25 21:42 | 55.68391 | 12.75909 | 4673 ft | 210 kts | 53° |
| 2026-04-25 21:42 | 55.68781 | 12.78518 | 5275 ft | 234 kts | 87° |
| 2026-04-25 21:42 | 55.68289 | 12.81341 | 6015 ft | 250 kts | 119° |
| 2026-04-25 21:42 | 55.67005 | 12.83597 | 6432 ft | 278 kts | 148° |
| 2026-04-25 21:43 | 55.65155 | 12.84886 | 6931 ft | 293 kts | 163° |
| 2026-04-25 21:43 | 55.63170 | 12.85878 | 7620 ft | 300 kts | 165° |
| 2026-04-25 21:43 | 55.61136 | 12.86847 | 8373 ft | 305 kts | 165° |
| 2026-04-25 21:43 | 55.59066 | 12.87824 | 9119 ft | 311 kts | 165° |
| 2026-04-25 21:44 | 55.56912 | 12.88373 | 9794 ft | 316 kts | 189° |
| 2026-04-25 21:44 | 55.54873 | 12.87117 | 10372 ft | 314 kts | 220° |
| 2026-04-25 21:44 | 55.52611 | 12.80610 | 10761 ft | 332 kts | 256° |
| 2026-04-25 21:45 | 55.51661 | 12.76787 | 11258 ft | 346 kts | 253° |
| 2026-04-25 21:45 | 55.51327 | 12.75539 | 11468 ft | 348 kts | 253° |
| 2026-04-25 21:45 | 55.49511 | 12.69069 | 12770 ft | 354 kts | 253° |
| 2026-04-25 21:45 | 55.48391 | 12.65177 | 13563 ft | 358 kts | 254° |
| 2026-04-25 21:46 | 55.47269 | 12.61296 | 14269 ft | 362 kts | 255° |
| 2026-04-25 21:46 | 55.46104 | 12.57278 | 15017 ft | 365 kts | 256° |
| 2026-04-25 21:46 | 55.44960 | 12.53342 | 15762 ft | 367 kts | 256° |
| 2026-04-25 21:46 | 55.43793 | 12.49326 | 16532 ft | 370 kts | 257° |
| 2026-04-25 21:47 | 55.42616 | 12.45278 | 17264 ft | 373 kts | 257° |
| 2026-04-25 21:47 | 55.41427 | 12.41195 | 17976 ft | 377 kts | 257° |
| 2026-04-25 21:47 | 55.40226 | 12.37073 | 18616 ft | 381 kts | 258° |
| 2026-04-25 21:47 | 55.39012 | 12.32914 | 19215 ft | 384 kts | 258° |
| 2026-04-25 21:48 | 55.37782 | 12.28709 | 19791 ft | 388 kts | 258° |
| 2026-04-25 21:48 | 55.36541 | 12.24473 | 20314 ft | 392 kts | 257° |
| 2026-04-25 21:48 | 55.35283 | 12.20186 | 20846 ft | 397 kts | 257° |
| 2026-04-25 21:48 | 55.34009 | 12.15859 | 21415 ft | 400 kts | 257° |
| 2026-04-25 21:49 | 55.32722 | 12.11498 | 21989 ft | 404 kts | 257° |
| 2026-04-25 21:49 | 55.31424 | 12.07106 | 22529 ft | 407 kts | 256° |
| 2026-04-25 21:49 | 55.30111 | 12.02668 | 23055 ft | 411 kts | 256° |
| 2026-04-25 21:49 | 55.28785 | 11.98198 | 23594 ft | 415 kts | 256° |
| 2026-04-25 21:50 | 55.27445 | 11.93689 | 24022 ft | 419 kts | 256° |
| 2026-04-25 21:50 | 55.26092 | 11.89145 | 24467 ft | 422 kts | 256° |
| 2026-04-25 21:50 | 55.24728 | 11.84573 | 24888 ft | 425 kts | 256° |
| 2026-04-25 21:50 | 55.23816 | 11.81520 | 25164 ft | 427 kts | 256° |
| 2026-04-25 21:51 | 55.21962 | 11.75326 | 25696 ft | 432 kts | 256° |
| 2026-04-25 21:51 | 55.20560 | 11.70655 | 26105 ft | 433 kts | 255° |
| 2026-04-25 21:51 | 55.19153 | 11.65983 | 26565 ft | 435 kts | 255° |
| 2026-04-25 21:51 | 55.17738 | 11.61284 | 26934 ft | 438 kts | 255° |
| 2026-04-25 21:52 | 55.16310 | 11.56552 | 27234 ft | 441 kts | 254° |
| 2026-04-25 21:52 | 55.14872 | 11.51793 | 27614 ft | 444 kts | 253° |
| 2026-04-25 21:52 | 55.13423 | 11.47011 | 27991 ft | 447 kts | 253° |
| 2026-04-25 21:52 | 55.11961 | 11.42197 | 28341 ft | 450 kts | 253° |
| 2026-04-25 21:53 | 55.10489 | 11.37356 | 28679 ft | 453 kts | 253° |
| 2026-04-25 21:53 | 55.09003 | 11.32485 | 29022 ft | 456 kts | 253° |
| 2026-04-25 21:53 | 55.07507 | 11.27588 | 29354 ft | 458 kts | 253° |
| 2026-04-25 21:53 | 55.06003 | 11.22675 | 29677 ft | 461 kts | 253° |
| 2026-04-25 21:54 | 55.04485 | 11.17726 | 30012 ft | 464 kts | 253° |
| 2026-04-25 21:54 | 55.02961 | 11.12769 | 30350 ft | 464 kts | 253° |
| 2026-04-25 21:54 | 55.01950 | 11.09492 | 30623 ft | 463 kts | 253° |
| 2026-04-25 21:54 | 55.00432 | 11.04586 | 31208 ft | 455 kts | 252° |
| 2026-04-25 21:55 | 54.98939 | 10.99766 | 31786 ft | 450 kts | 252° |
| 2026-04-25 21:55 | 54.97458 | 10.94972 | 32110 ft | 450 kts | 252° |
| 2026-04-25 21:55 | 54.95974 | 10.90171 | 32385 ft | 451 kts | 252° |
| 2026-04-25 21:55 | 54.94687 | 10.85251 | 32650 ft | 442 kts | 260° |
| 2026-04-25 21:56 | 54.93880 | 10.80179 | 32965 ft | 429 kts | 269° |
| 2026-04-25 21:56 | 54.93363 | 10.75091 | 33376 ft | 426 kts | 270° |
| 2026-04-25 21:56 | 54.92859 | 10.70026 | 33768 ft | 425 kts | 270° |
| 2026-04-25 21:56 | 54.92351 | 10.64962 | 34100 ft | 425 kts | 270° |
| 2026-04-25 21:57 | 54.91832 | 10.59902 | 34384 ft | 425 kts | 269° |
| 2026-04-25 21:57 | 54.91303 | 10.54848 | 34685 ft | 425 kts | 269° |
| 2026-04-25 21:57 | 54.90768 | 10.49812 | 34986 ft | 424 kts | 269° |
| 2026-04-25 21:57 | 54.90227 | 10.44775 | 35278 ft | 424 kts | 269° |
| 2026-04-25 21:58 | 54.89684 | 10.39741 | 35549 ft | 424 kts | 269° |
| 2026-04-25 21:58 | 54.89138 | 10.34716 | 35839 ft | 423 kts | 269° |
| 2026-04-25 21:58 | 54.88592 | 10.29704 | 36122 ft | 422 kts | 269° |
| 2026-04-25 21:58 | 54.88044 | 10.24690 | 36385 ft | 422 kts | 269° |
| 2026-04-25 21:59 | 54.87495 | 10.19681 | 36654 ft | 422 kts | 269° |
| 2026-04-25 21:59 | 54.86944 | 10.14686 | 36929 ft | 421 kts | 269° |
| 2026-04-25 21:59 | 54.86393 | 10.09697 | 37188 ft | 421 kts | 269° |
| 2026-04-25 22:00 | 54.85293 | 9.99799 | 37666 ft | 420 kts | 269° |
| 2026-04-25 22:00 | 54.84738 | 9.94821 | 37841 ft | 421 kts | 269° |
| 2026-04-25 22:00 | 54.84178 | 9.89830 | 38014 ft | 422 kts | 269° |
| 2026-04-25 22:00 | 54.83580 | 9.84820 | 38133 ft | 426 kts | 267° |
| 2026-04-25 22:01 | 54.82168 | 9.74760 | 38126 ft | 430 kts | 265° |
| 2026-04-25 22:01 | 54.80930 | 9.66359 | 38122 ft | 428 kts | 265° |
| 2026-04-25 22:02 | 54.79237 | 9.54761 | 38133 ft | 426 kts | 265° |
| 2026-04-25 22:02 | 54.77799 | 9.44812 | 38128 ft | 425 kts | 265° |
| 2026-04-25 22:03 | 54.76365 | 9.34900 | 38127 ft | 424 kts | 265° |
| 2026-04-25 22:03 | 54.74925 | 9.25002 | 38140 ft | 424 kts | 265° |
| 2026-04-25 22:04 | 54.73477 | 9.15110 | 38136 ft | 424 kts | 264° |
| 2026-04-25 22:04 | 54.72018 | 9.05210 | 38150 ft | 425 kts | 264° |
| 2026-04-25 22:05 | 54.70546 | 8.95278 | 38155 ft | 427 kts | 264° |
| 2026-04-25 22:05 | 54.69058 | 8.85310 | 38161 ft | 429 kts | 264° |
| 2026-04-25 22:06 | 54.67554 | 8.75299 | 38158 ft | 431 kts | 263° |
| 2026-04-25 22:06 | 54.66037 | 8.65264 | 38159 ft | 433 kts | 263° |
| 2026-04-25 22:07 | 54.64766 | 8.56903 | 38173 ft | 434 kts | 262° |
| 2026-04-25 22:07 | 54.62962 | 8.45113 | 38178 ft | 435 kts | 262° |
| 2026-04-25 22:08 | 54.61404 | 8.34996 | 38186 ft | 437 kts | 262° |
| 2026-04-25 22:08 | 54.59834 | 8.24864 | 38185 ft | 437 kts | 262° |
| 2026-04-25 22:09 | 54.58253 | 8.14730 | 38198 ft | 437 kts | 262° |
| 2026-04-25 22:09 | 54.56666 | 8.04614 | 38170 ft | 437 kts | 261° |
| 2026-04-25 22:10 | 54.55076 | 7.94539 | 38205 ft | 436 kts | 261° |
| 2026-04-25 22:10 | 54.53477 | 7.84471 | 38214 ft | 436 kts | 261° |
| 2026-04-25 22:11 | 54.51872 | 7.74421 | 38215 ft | 435 kts | 261° |
| 2026-04-25 22:11 | 54.50259 | 7.64380 | 38224 ft | 435 kts | 260° |
| 2026-04-25 22:12 | 54.48639 | 7.54355 | 38218 ft | 435 kts | 260° |
| 2026-04-25 22:12 | 54.47286 | 7.46032 | 38215 ft | 435 kts | 259° |
| 2026-04-25 22:13 | 54.45373 | 7.34325 | 38229 ft | 435 kts | 259° |
| 2026-04-25 22:13 | 54.43725 | 7.24305 | 38236 ft | 437 kts | 259° |
| 2026-04-25 22:14 | 54.42063 | 7.14262 | 38243 ft | 438 kts | 259° |
| 2026-04-25 22:14 | 54.40388 | 7.04199 | 38242 ft | 439 kts | 259° |
| 2026-04-25 22:15 | 54.38713 | 6.94192 | 38222 ft | 440 kts | 258° |
| 2026-04-25 22:16 | 54.36163 | 6.79065 | 38252 ft | 441 kts | 258° |
| 2026-04-25 22:16 | 54.34449 | 6.68975 | 38251 ft | 441 kts | 258° |
| 2026-04-25 22:17 | 54.32724 | 6.58875 | 38256 ft | 442 kts | 258° |
| 2026-04-25 22:17 | 54.30991 | 6.48785 | 38248 ft | 441 kts | 257° |
| 2026-04-25 22:18 | 54.29249 | 6.38704 | 38237 ft | 441 kts | 257° |
| 2026-04-25 22:18 | 54.27502 | 6.28648 | 38261 ft | 441 kts | 256° |
| 2026-04-25 22:19 | 54.25746 | 6.18602 | 38267 ft | 440 kts | 256° |
| 2026-04-25 22:19 | 54.23983 | 6.08569 | 38275 ft | 440 kts | 256° |
| 2026-04-25 22:20 | 54.22215 | 5.98561 | 38263 ft | 440 kts | 256° |
| 2026-04-25 22:20 | 54.20441 | 5.88572 | 38272 ft | 439 kts | 256° |
| 2026-04-25 22:21 | 54.18659 | 5.78599 | 38275 ft | 439 kts | 255° |
| 2026-04-25 22:21 | 54.16873 | 5.68653 | 38269 ft | 438 kts | 255° |
| 2026-04-25 22:22 | 54.15081 | 5.58731 | 38274 ft | 437 kts | 255° |
| 2026-04-25 22:22 | 54.13282 | 5.48826 | 38283 ft | 437 kts | 255° |
| 2026-04-25 22:23 | 54.11478 | 5.38944 | 38267 ft | 437 kts | 255° |
| 2026-04-25 22:23 | 54.09666 | 5.29066 | 38282 ft | 437 kts | 255° |
| 2026-04-25 22:24 | 54.07844 | 5.19193 | 38286 ft | 437 kts | 254° |
| 2026-04-25 22:24 | 54.06011 | 5.09306 | 38289 ft | 439 kts | 254° |
| 2026-04-25 22:25 | 54.04163 | 4.99398 | 38285 ft | 440 kts | 254° |
| 2026-04-25 22:25 | 54.02302 | 4.89469 | 38286 ft | 441 kts | 254° |
| 2026-04-25 22:26 | 54.00441 | 4.79592 | 38290 ft | 442 kts | 254° |
| 2026-04-25 22:26 | 53.98553 | 4.69629 | 38288 ft | 443 kts | 254° |
| 2026-04-25 22:27 | 53.96655 | 4.59666 | 38293 ft | 444 kts | 254° |
| 2026-04-25 22:27 | 53.94748 | 4.49702 | 38288 ft | 444 kts | 254° |
| 2026-04-25 22:28 | 53.92833 | 4.39750 | 38288 ft | 443 kts | 253° |
| 2026-04-25 22:28 | 53.90912 | 4.29817 | 38285 ft | 443 kts | 253° |
| 2026-04-25 22:29 | 53.88987 | 4.19916 | 38291 ft | 441 kts | 253° |
| 2026-04-25 22:29 | 53.87062 | 4.10054 | 38296 ft | 440 kts | 253° |
| 2026-04-25 22:30 | 53.83710 | 3.95648 | 38299 ft | 441 kts | 238° |
| 2026-04-25 22:30 | 53.80375 | 3.89041 | 38287 ft | 443 kts | 222° |
| 2026-04-25 22:31 | 53.74811 | 3.81429 | 38294 ft | 443 kts | 220° |
| 2026-04-25 22:31 | 53.70007 | 3.74923 | 38290 ft | 442 kts | 220° |
| 2026-04-25 22:32 | 53.65242 | 3.68395 | 38294 ft | 440 kts | 221° |
| 2026-04-25 22:32 | 53.60509 | 3.61892 | 38293 ft | 438 kts | 221° |
| 2026-04-25 22:33 | 53.55801 | 3.55437 | 38289 ft | 435 kts | 221° |
| 2026-04-25 22:33 | 53.51109 | 3.49026 | 38293 ft | 434 kts | 221° |
| 2026-04-25 22:34 | 53.46436 | 3.42659 | 38293 ft | 432 kts | 221° |
| 2026-04-25 22:34 | 53.41777 | 3.36330 | 38288 ft | 430 kts | 221° |
| 2026-04-25 22:35 | 53.36703 | 3.31014 | 38303 ft | 432 kts | 209° |
| 2026-04-25 22:35 | 53.31305 | 3.26558 | 38292 ft | 432 kts | 209° |
| 2026-04-25 22:36 | 53.25928 | 3.22025 | 38287 ft | 433 kts | 209° |
| 2026-04-25 22:36 | 53.20556 | 3.17464 | 38281 ft | 434 kts | 210° |
| 2026-04-25 22:37 | 53.15168 | 3.12907 | 38296 ft | 434 kts | 210° |
| 2026-04-25 22:37 | 53.09781 | 3.08366 | 37782 ft | 440 kts | 210° |
| 2026-04-25 22:38 | 53.07064 | 3.06083 | 37296 ft | 435 kts | 210° |
| 2026-04-25 22:38 | 53.04380 | 3.03831 | 36669 ft | 431 kts | 209° |
| 2026-04-25 22:38 | 53.01690 | 3.01573 | 35940 ft | 434 kts | 209° |
| 2026-04-25 22:38 | 52.98989 | 2.99309 | 35326 ft | 435 kts | 209° |
| 2026-04-25 22:39 | 52.96295 | 2.97052 | 34819 ft | 432 kts | 210° |
| 2026-04-25 22:39 | 52.93754 | 2.94511 | 34548 ft | 421 kts | 218° |
| 2026-04-25 22:39 | 52.91542 | 2.91440 | 34223 ft | 411 kts | 225° |
| 2026-04-25 22:39 | 52.89451 | 2.88235 | 33718 ft | 408 kts | 225° |
| 2026-04-25 22:40 | 52.87368 | 2.85045 | 33159 ft | 407 kts | 225° |
| 2026-04-25 22:40 | 52.85992 | 2.82947 | 32821 ft | 405 kts | 225° |
| 2026-04-25 22:40 | 52.83923 | 2.79809 | 32349 ft | 403 kts | 224° |
| 2026-04-25 22:40 | 52.81860 | 2.76698 | 31892 ft | 400 kts | 224° |
| 2026-04-25 22:41 | 52.79812 | 2.73622 | 31435 ft | 397 kts | 224° |
| 2026-04-25 22:41 | 52.77771 | 2.70565 | 30993 ft | 394 kts | 224° |
| 2026-04-25 22:41 | 52.75747 | 2.67539 | 30558 ft | 392 kts | 224° |
| 2026-04-25 22:41 | 52.73731 | 2.64530 | 30072 ft | 389 kts | 224° |
| 2026-04-25 22:42 | 52.71730 | 2.61546 | 29590 ft | 385 kts | 224° |
| 2026-04-25 22:42 | 52.69754 | 2.58606 | 29153 ft | 381 kts | 224° |
| 2026-04-25 22:42 | 52.67790 | 2.55685 | 28608 ft | 380 kts | 224° |
| 2026-04-25 22:42 | 52.65829 | 2.52771 | 28042 ft | 379 kts | 224° |
| 2026-04-25 22:43 | 52.63870 | 2.49864 | 27531 ft | 378 kts | 224° |
| 2026-04-25 22:43 | 52.61921 | 2.46975 | 27048 ft | 376 kts | 224° |
| 2026-04-25 22:43 | 52.59980 | 2.44102 | 26571 ft | 375 kts | 223° |
| 2026-04-25 22:43 | 52.58056 | 2.41259 | 26339 ft | 367 kts | 223° |
| 2026-04-25 22:44 | 52.56193 | 2.38507 | 26288 ft | 354 kts | 223° |
| 2026-04-25 22:44 | 52.54394 | 2.35855 | 26278 ft | 341 kts | 223° |
| 2026-04-25 22:44 | 52.52661 | 2.33304 | 26275 ft | 328 kts | 223° |
| 2026-04-25 22:44 | 52.50993 | 2.30851 | 26266 ft | 316 kts | 223° |
| 2026-04-25 22:45 | 52.49389 | 2.28497 | 26248 ft | 304 kts | 224° |
| 2026-04-25 22:45 | 52.47835 | 2.26218 | 26080 ft | 298 kts | 224° |
| 2026-04-25 22:45 | 52.46295 | 2.23958 | 25761 ft | 297 kts | 224° |
| 2026-04-25 22:45 | 52.44746 | 2.21686 | 25344 ft | 301 kts | 224° |
| 2026-04-25 22:46 | 52.43174 | 2.19383 | 24807 ft | 307 kts | 223° |
| 2026-04-25 22:46 | 52.41534 | 2.16982 | 24161 ft | 320 kts | 223° |
| 2026-04-25 22:46 | 52.39858 | 2.14532 | 23857 ft | 332 kts | 223° |
| 2026-04-25 22:46 | 52.38060 | 2.11908 | 23487 ft | 359 kts | 222° |
| 2026-04-25 22:47 | 52.36175 | 2.09160 | 23073 ft | 363 kts | 223° |
| 2026-04-25 22:47 | 52.34553 | 2.06020 | 22624 ft | 362 kts | 242° |
| 2026-04-25 22:47 | 52.33535 | 2.02347 | 22271 ft | 358 kts | 247° |
| 2026-04-25 22:47 | 52.32581 | 1.98596 | 21796 ft | 358 kts | 248° |
| 2026-04-25 22:48 | 52.31624 | 1.94837 | 21322 ft | 358 kts | 248° |
| 2026-04-25 22:48 | 52.30642 | 1.91043 | 20860 ft | 358 kts | 247° |
| 2026-04-25 22:48 | 52.29672 | 1.87354 | 20433 ft | 358 kts | 247° |
| 2026-04-25 22:48 | 52.28697 | 1.83671 | 20320 ft | 351 kts | 247° |
| 2026-04-25 22:49 | 52.27732 | 1.80037 | 20282 ft | 347 kts | 247° |
| 2026-04-25 22:49 | 52.26770 | 1.76421 | 20287 ft | 347 kts | 247° |
| 2026-04-25 22:49 | 52.25814 | 1.72833 | 20220 ft | 341 kts | 246° |
| 2026-04-25 22:49 | 52.24872 | 1.69301 | 19944 ft | 338 kts | 247° |
| 2026-04-25 22:50 | 52.23934 | 1.65786 | 19485 ft | 339 kts | 246° |
| 2026-04-25 22:50 | 52.22989 | 1.62251 | 19008 ft | 340 kts | 247° |
| 2026-04-25 22:50 | 52.22044 | 1.58717 | 18622 ft | 339 kts | 247° |
| 2026-04-25 22:50 | 52.21103 | 1.55208 | 18255 ft | 335 kts | 247° |
| 2026-04-25 22:51 | 52.20180 | 1.51772 | 17686 ft | 329 kts | 247° |
| 2026-04-25 22:51 | 52.19263 | 1.48360 | 16968 ft | 329 kts | 247° |
| 2026-04-25 22:51 | 52.18344 | 1.44946 | 16258 ft | 329 kts | 247° |
| 2026-04-25 22:51 | 52.17430 | 1.41554 | 15660 ft | 325 kts | 247° |
| 2026-04-25 22:52 | 52.16526 | 1.38205 | 15116 ft | 321 kts | 247° |
| 2026-04-25 22:52 | 52.15628 | 1.34884 | 14460 ft | 321 kts | 247° |
| 2026-04-25 22:52 | 52.14731 | 1.31566 | 13799 ft | 320 kts | 247° |
| 2026-04-25 22:52 | 52.14137 | 1.29374 | 13387 ft | 318 kts | 247° |
| 2026-04-25 22:53 | 52.12957 | 1.25029 | 12708 ft | 310 kts | 247° |
| 2026-04-25 22:53 | 52.12092 | 1.21854 | 12413 ft | 302 kts | 247° |
| 2026-04-25 22:53 | 52.11356 | 1.18674 | 12099 ft | 299 kts | 254° |
| 2026-04-25 22:53 | 52.10813 | 1.15453 | 11891 ft | 293 kts | 256° |
| 2026-04-25 22:54 | 52.10316 | 1.12260 | 11679 ft | 288 kts | 256° |
| 2026-04-25 22:54 | 52.09826 | 1.09118 | 11473 ft | 286 kts | 256° |
| 2026-04-25 22:54 | 52.09330 | 1.05988 | 11283 ft | 285 kts | 256° |
| 2026-04-25 22:54 | 52.08818 | 1.02864 | 11066 ft | 287 kts | 255° |
| 2026-04-25 22:55 | 52.08296 | 0.99727 | 10877 ft | 288 kts | 255° |
| 2026-04-25 22:55 | 52.07769 | 0.96575 | 10669 ft | 289 kts | 255° |
| 2026-04-25 22:55 | 52.07243 | 0.93433 | 10479 ft | 287 kts | 255° |
| 2026-04-25 22:55 | 52.06722 | 0.90315 | 10265 ft | 285 kts | 255° |
| 2026-04-25 22:56 | 52.06205 | 0.87228 | 10054 ft | 282 kts | 255° |
| 2026-04-25 22:56 | 52.05691 | 0.84162 | 9839 ft | 280 kts | 255° |
| 2026-04-25 22:56 | 52.05181 | 0.81118 | 9636 ft | 278 kts | 255° |
| 2026-04-25 22:56 | 52.04679 | 0.78131 | 9425 ft | 278 kts | 255° |
| 2026-04-25 22:57 | 52.04160 | 0.75046 | 9226 ft | 281 kts | 254° |
| 2026-04-25 22:57 | 52.03617 | 0.71996 | 9013 ft | 280 kts | 248° |
| 2026-04-25 22:57 | 52.02626 | 0.69276 | 8648 ft | 280 kts | 233° |
| 2026-04-25 22:57 | 52.01458 | 0.66813 | 8407 ft | 277 kts | 231° |
| 2026-04-25 22:58 | 52.00258 | 0.64354 | 8216 ft | 272 kts | 231° |
| 2026-04-25 22:58 | 51.99096 | 0.61987 | 8110 ft | 264 kts | 231° |
| 2026-04-25 22:58 | 51.97988 | 0.59735 | 8013 ft | 257 kts | 231° |
| 2026-04-25 22:58 | 51.96838 | 0.57398 | 7454 ft | 269 kts | 231° |
| 2026-04-25 22:59 | 51.95664 | 0.55012 | 6965 ft | 278 kts | 231° |
| 2026-04-25 22:59 | 51.94457 | 0.52554 | 6638 ft | 278 kts | 231° |
| 2026-04-25 22:59 | 51.93254 | 0.50104 | 6347 ft | 277 kts | 231° |
| 2026-04-25 22:59 | 51.92041 | 0.47635 | 6063 ft | 275 kts | 231° |
| 2026-04-25 23:00 | 51.90873 | 0.45233 | 5755 ft | 275 kts | 231° |
| 2026-04-25 23:00 | 51.89694 | 0.42795 | 5437 ft | 275 kts | 231° |
| 2026-04-25 23:00 | 51.88514 | 0.40345 | 5144 ft | 275 kts | 231° |
| 2026-04-25 23:00 | 51.87341 | 0.37913 | 4843 ft | 274 kts | 231° |
| 2026-04-25 23:01 | 51.86170 | 0.35497 | 4575 ft | 272 kts | 231° |
| 2026-04-25 23:01 | 51.84984 | 0.33096 | 4206 ft | 274 kts | 228° |
| 2026-04-25 23:01 | 51.83705 | 0.30791 | 4023 ft | 275 kts | 226° |
| 2026-04-25 23:01 | 51.82430 | 0.28544 | 3984 ft | 266 kts | 226° |
| 2026-04-25 23:02 | 51.81176 | 0.26334 | 3596 ft | 270 kts | 226° |
| 2026-04-25 23:02 | 51.79931 | 0.24114 | 3289 ft | 263 kts | 227° |
| 2026-04-25 23:02 | 51.78722 | 0.21924 | 2896 ft | 258 kts | 226° |
| 2026-04-25 23:02 | 51.77707 | 0.19644 | 2655 ft | 245 kts | 245° |
| 2026-04-25 23:03 | 51.77367 | 0.17064 | 2433 ft | 230 kts | 274° |
| 2026-04-25 23:03 | 51.77722 | 0.14643 | 2237 ft | 214 kts | 297° |
| 2026-04-25 23:03 | 51.78487 | 0.12701 | 2149 ft | 200 kts | 315° |
| 2026-04-25 23:03 | 51.79551 | 0.11440 | 2229 ft | 180 kts | 351° |
| 2026-04-25 23:04 | 51.80698 | 0.11764 | 2185 ft | 172 kts | 36° |
| 2026-04-25 23:04 | 51.81340 | 0.12546 | 2060 ft | 178 kts | 44° |
| 2026-04-25 23:04 | 51.82526 | 0.14473 | 1636 ft | 178 kts | 49° |
| 2026-04-25 23:04 | 51.83352 | 0.15869 | 1436 ft | 164 kts | 46° |
| 2026-04-25 23:05 | 51.84175 | 0.16985 | 1266 ft | 148 kts | 42° |
| 2026-04-25 23:05 | 51.84932 | 0.18083 | 1091 ft | 145 kts | 47° |
| 2026-04-25 23:05 | 51.85670 | 0.19211 | 930 ft | 146 kts | 45° |
| 2026-04-25 23:05 | 51.86401 | 0.20325 | 745 ft | 142 kts | 45° |
| 2026-04-25 23:06 | 51.87122 | 0.21406 | 543 ft | 142 kts | 45° |
| 2026-04-25 23:06 | 51.87848 | 0.22501 | 356 ft | 142 kts | 44° |
| 2026-04-25 23:06 | 51.88459 | 0.23418 | 347 ft | 90 kts | 43° |
| 2026-04-25 23:06 | 51.88804 | 0.23938 | 346 ft | 60 kts | 43° |
| 2026-04-25 23:07 | 51.89046 | 0.24347 | 353 ft | 38 kts | 60° |
| 2026-04-25 23:07 | 51.89130 | 0.24655 | 352 ft | 19 kts | 68° |
| 2026-04-25 23:07 | 51.89168 | 0.24813 | 349 ft | 12 kts | 80° |
| 2026-04-25 23:07 | 51.89158 | 0.24938 | 350 ft | 12 kts | 69° |
| 2026-04-25 23:08 | 51.89217 | 0.25055 | 354 ft | 11 kts | 56° |
| 2026-04-25 23:08 | 51.89233 | 0.25096 | 352 ft | 5 kts | 64° |
| 2026-04-25 23:08 | 51.89243 | 0.25171 | 348 ft | 8 kts | 103° |
| 2026-04-25 23:08 | 51.89184 | 0.25252 | 351 ft | 12 kts | 146° |
| 2026-04-25 23:09 | 51.89132 | 0.25315 | 348 ft | 9 kts | 134° |
| 2026-04-25 23:09 | 51.89095 | 0.25379 | 354 ft | 6 kts | 132° |
| 2026-04-25 23:09 | 51.89069 | 0.25425 | 348 ft | 5 kts | 131° |
| 2026-04-25 23:09 | 51.89058 | 0.25470 | 355 ft | 5 kts | 87° |
| 2026-04-25 23:10 | 51.89071 | 0.25517 | 350 ft | 5 kts | 53° |
| 2026-04-25 23:10 | 51.89098 | 0.25558 | 348 ft | 5 kts | 42° |
| 2026-04-25 23:10 | 51.89109 | 0.25575 | 351 ft | 0 kts | 42° |
| 2026-04-25 23:10 | 51.89110 | 0.25575 | 351 ft | 0 kts | 42° |